sensor_id;sensor_type;location;lat;lon;timestamp;pressure;altitude;pressure_sealevel;temperature
64600;BMP280;6553;48.412;9.514;2023-02-28T00:00:50;71722.47;;;20.40
64600;BMP280;6553;48.412;9.514;2023-02-28T00:03:16;71725.13;;;20.43
64600;BMP280;6553;48.412;9.514;2023-02-28T00:05:42;71723.53;;;20.41
64600;BMP280;6553;48.412;9.514;2023-02-28T00:08:08;71724.63;;;20.42
64600;BMP280;6553;48.412;9.514;2023-02-28T00:10:35;71727.41;;;20.42
64600;BMP280;6553;48.412;9.514;2023-02-28T00:13:05;71721.31;;;20.42
64600;BMP280;6553;48.412;9.514;2023-02-28T00:15:32;71728.44;;;20.43
64600;BMP280;6553;48.412;9.514;2023-02-28T00:17:58;71720.66;;;20.44
64600;BMP280;6553;48.412;9.514;2023-02-28T00:20:24;71723.53;;;20.41
64600;BMP280;6553;48.412;9.514;2023-02-28T00:22:53;71723.41;;;20.44
64600;BMP280;6553;48.412;9.514;2023-02-28T00:25:25;71726.72;;;20.44
64600;BMP280;6553;48.412;9.514;2023-02-28T00:27:51;71725.66;;;20.43
64600;BMP280;6553;48.412;9.514;2023-02-28T00:30:22;71724.63;;;20.42
64600;BMP280;6553;48.412;9.514;2023-02-28T00:32:50;71724.72;;;20.40
64600;BMP280;6553;48.412;9.514;2023-02-28T00:35:16;71721.94;;;20.40
64600;BMP280;6553;48.412;9.514;2023-02-28T00:37:43;71727.47;;;20.40
64600;BMP280;6553;48.412;9.514;2023-02-28T00:40:10;71716.41;;;20.40
64600;BMP280;6553;48.412;9.514;2023-02-28T00:42:37;71721.31;;;20.42
64600;BMP280;6553;48.412;9.514;2023-02-28T00:45:04;71719.69;;;20.40
64600;BMP280;6553;48.412;9.514;2023-02-28T00:47:31;71715.84;;;20.39
64600;BMP280;6553;48.412;9.514;2023-02-28T00:49:57;71724.09;;;20.42
64600;BMP280;6553;48.412;9.514;2023-02-28T00:52:23;71727.41;;;20.42
64600;BMP280;6553;48.412;9.514;2023-02-28T00:54:49;71724.63;;;20.42
64600;BMP280;6553;48.412;9.514;2023-02-28T00:57:15;71725.13;;;20.43
64600;BMP280;6553;48.412;9.514;2023-02-28T00:59:40;71723.41;;;20.44
64600;BMP280;6553;48.412;9.514;2023-02-28T01:02:06;71721.19;;;20.44
64600;BMP280;6553;48.412;9.514;2023-02-28T01:04:32;71727.25;;;20.45
64600;BMP280;6553;48.412;9.514;2023-02-28T01:07:00;71725.66;;;20.43
64600;BMP280;6553;48.412;9.514;2023-02-28T01:09:28;71724.50;;;20.45
64600;BMP280;6553;48.412;9.514;2023-02-28T01:11:54;71726.72;;;20.44
64600;BMP280;6553;48.412;9.514;2023-02-28T01:14:20;71728.44;;;20.43
64600;BMP280;6553;48.412;9.514;2023-02-28T01:16:46;71728.34;;;20.46
64600;BMP280;6553;48.412;9.514;2023-02-28T01:19:12;71727.25;;;20.45
64600;BMP280;6553;48.412;9.514;2023-02-28T01:21:38;71725.78;;;20.41
64600;BMP280;6553;48.412;9.514;2023-02-28T01:24:05;71725.13;;;20.43
64600;BMP280;6553;48.412;9.514;2023-02-28T01:26:32;71724.09;;;20.42
64600;BMP280;6553;48.412;9.514;2023-02-28T01:28:58;71725.13;;;20.43
64600;BMP280;6553;48.412;9.514;2023-02-28T01:31:25;71725.78;;;20.41
64600;BMP280;6553;48.412;9.514;2023-02-28T01:33:51;71725.13;;;20.43
64600;BMP280;6553;48.412;9.514;2023-02-28T01:36:22;71724.09;;;20.42
64600;BMP280;6553;48.412;9.514;2023-02-28T01:38:48;71723.53;;;20.41
64600;BMP280;6553;48.412;9.514;2023-02-28T01:41:28;71725.66;;;20.43
64600;BMP280;6553;48.412;9.514;2023-02-28T01:44:07;71728.97;;;20.44
64600;BMP280;6553;48.412;9.514;2023-02-28T01:46:51;71726.19;;;20.44
64600;BMP280;6553;48.412;9.514;2023-02-28T01:49:18;71719.59;;;20.43
64600;BMP280;6553;48.412;9.514;2023-02-28T01:51:54;71727.91;;;20.43
64600;BMP280;6553;48.412;9.514;2023-02-28T01:54:24;71721.84;;;20.42
64600;BMP280;6553;48.412;9.514;2023-02-28T01:56:57;71724.09;;;20.42
64600;BMP280;6553;48.412;9.514;2023-02-28T01:59:35;71723.00;;;20.41
64600;BMP280;6553;48.412;9.514;2023-02-28T02:02:03;71723.53;;;20.41
64600;BMP280;6553;48.412;9.514;2023-02-28T02:04:41;71721.19;;;20.44
64600;BMP280;6553;48.412;9.514;2023-02-28T02:07:13;71728.84;;;20.46
64600;BMP280;6553;48.412;9.514;2023-02-28T02:09:43;71722.78;;;20.46
64600;BMP280;6553;48.412;9.514;2023-02-28T02:12:40;71725.03;;;20.45
64600;BMP280;6553;48.412;9.514;2023-02-28T02:18:49;71730.03;;;20.45
64600;BMP280;6553;48.412;9.514;2023-02-28T02:27:55;71721.84;;;20.42
64600;BMP280;6553;48.412;9.514;2023-02-28T02:36:23;71726.72;;;20.44
64600;BMP280;6553;48.412;9.514;2023-02-28T02:39:17;71724.63;;;20.42
64600;BMP280;6553;48.412;9.514;2023-02-28T02:41:53;71722.38;;;20.43
64600;BMP280;6553;48.412;9.514;2023-02-28T02:44:55;71723.94;;;20.44
64600;BMP280;6553;48.412;9.514;2023-02-28T02:47:20;71727.78;;;20.45
64600;BMP280;6553;48.412;9.514;2023-02-28T02:49:58;71728.34;;;20.46
64600;BMP280;6553;48.412;9.514;2023-02-28T02:52:35;71725.03;;;20.45
64600;BMP280;6553;48.412;9.514;2023-02-28T02:55:06;71728.34;;;20.46
64600;BMP280;6553;48.412;9.514;2023-02-28T02:57:49;71730.03;;;20.45
64600;BMP280;6553;48.412;9.514;2023-02-28T03:00:22;71726.72;;;20.44
64600;BMP280;6553;48.412;9.514;2023-02-28T03:02:50;71730.56;;;20.45
64600;BMP280;6553;48.412;9.514;2023-02-28T03:05:35;71727.78;;;20.45
64600;BMP280;6553;48.412;9.514;2023-02-28T03:08:05;71726.72;;;20.44
64600;BMP280;6553;48.412;9.514;2023-02-28T03:10:40;71728.34;;;20.46
64600;BMP280;6553;48.412;9.514;2023-02-28T03:13:58;71732.69;;;20.47
64600;BMP280;6553;48.412;9.514;2023-02-28T03:22:01;71731.63;;;20.46
64600;BMP280;6553;48.412;9.514;2023-02-28T03:27:24;71725.56;;;20.46
64600;BMP280;6553;48.412;9.514;2023-02-28T03:30:03;71727.78;;;20.45
64600;BMP280;6553;48.412;9.514;2023-02-28T03:32:38;71727.78;;;20.45
64600;BMP280;6553;48.412;9.514;2023-02-28T03:35:19;71722.25;;;20.45
64600;BMP280;6553;48.412;9.514;2023-02-28T03:37:53;71727.78;;;20.45
64600;BMP280;6553;48.412;9.514;2023-02-28T03:40:25;71726.63;;;20.47
64600;BMP280;6553;48.412;9.514;2023-02-28T03:43:03;71729.91;;;20.47
64600;BMP280;6553;48.412;9.514;2023-02-28T03:45:35;71729.91;;;20.47
64600;BMP280;6553;48.412;9.514;2023-02-28T03:48:23;71730.97;;;20.48
64600;BMP280;6553;48.412;9.514;2023-02-28T03:50:59;71731.63;;;20.46
64600;BMP280;6553;48.412;9.514;2023-02-28T03:53:37;71729.91;;;20.47
64600;BMP280;6553;48.412;9.514;2023-02-28T03:56:21;71726.63;;;20.47
64600;BMP280;6553;48.412;9.514;2023-02-28T04:03:53;71729.50;;;20.44
64600;BMP280;6553;48.412;9.514;2023-02-28T04:06:22;71728.84;;;20.46
64600;BMP280;6553;48.412;9.514;2023-02-28T04:08:49;71730.44;;;20.48
64600;BMP280;6553;48.412;9.514;2023-02-28T04:11:20;71725.03;;;20.45
64600;BMP280;6553;48.412;9.514;2023-02-28T04:13:47;71734.41;;;20.46
64600;BMP280;6553;48.412;9.514;2023-02-28T04:16:13;71726.06;;;20.46
64600;BMP280;6553;48.412;9.514;2023-02-28T04:18:39;71727.13;;;20.47
64600;BMP280;6553;48.412;9.514;2023-02-28T04:21:06;71729.91;;;20.47
64600;BMP280;6553;48.412;9.514;2023-02-28T04:23:32;71726.06;;;20.46
64600;BMP280;6553;48.412;9.514;2023-02-28T04:25:59;71726.72;;;20.44
64600;BMP280;6553;48.412;9.514;2023-02-28T04:28:25;71725.13;;;20.43
64600;BMP280;6553;48.412;9.514;2023-02-28T04:31:00;71727.25;;;20.45
64600;BMP280;6553;48.412;9.514;2023-02-28T04:33:28;71728.34;;;20.46
64600;BMP280;6553;48.412;9.514;2023-02-28T04:36:07;71721.31;;;20.42
64600;BMP280;6553;48.412;9.514;2023-02-28T04:38:38;71727.91;;;20.43
64600;BMP280;6553;48.412;9.514;2023-02-28T04:41:05;71726.19;;;20.44
64600;BMP280;6553;48.412;9.514;2023-02-28T04:43:32;71731.09;;;20.46
64600;BMP280;6553;48.412;9.514;2023-02-28T04:46:01;71727.78;;;20.45
64600;BMP280;6553;48.412;9.514;2023-02-28T04:48:29;71725.56;;;20.46
64600;BMP280;6553;48.412;9.514;2023-02-28T04:51:05;71726.06;;;20.46
64600;BMP280;6553;48.412;9.514;2023-02-28T04:53:32;71730.44;;;20.48
64600;BMP280;6553;48.412;9.514;2023-02-28T04:55:58;71727.25;;;20.45
64600;BMP280;6553;48.412;9.514;2023-02-28T04:58:25;71723.94;;;20.44
64600;BMP280;6553;48.412;9.514;2023-02-28T05:00:52;71731.50;;;20.49
64600;BMP280;6553;48.412;9.514;2023-02-28T05:03:19;71728.34;;;20.46
64600;BMP280;6553;48.412;9.514;2023-02-28T05:05:46;71723.94;;;20.44
64600;BMP280;6553;48.412;9.514;2023-02-28T05:08:12;71730.56;;;20.45
64600;BMP280;6553;48.412;9.514;2023-02-28T05:10:38;71722.25;;;20.45
64600;BMP280;6553;48.412;9.514;2023-02-28T05:13:04;71729.38;;;20.47
64600;BMP280;6553;48.412;9.514;2023-02-28T05:15:30;71726.19;;;20.44
64600;BMP280;6553;48.412;9.514;2023-02-28T05:17:56;71723.31;;;20.46
64600;BMP280;6553;48.412;9.514;2023-02-28T05:20:21;71723.94;;;20.44
64600;BMP280;6553;48.412;9.514;2023-02-28T05:22:47;71724.50;;;20.45
64600;BMP280;6553;48.412;9.514;2023-02-28T05:25:20;71728.97;;;20.44
64600;BMP280;6553;48.412;9.514;2023-02-28T05:27:47;71727.25;;;20.45
64600;BMP280;6553;48.412;9.514;2023-02-28T05:30:13;71724.50;;;20.45
64600;BMP280;6553;48.412;9.514;2023-02-28T05:32:40;71729.91;;;20.47
64600;BMP280;6553;48.412;9.514;2023-02-28T05:35:11;71733.75;;;20.48
64600;BMP280;6553;48.412;9.514;2023-02-28T05:37:38;71726.72;;;20.44
64600;BMP280;6553;48.412;9.514;2023-02-28T05:40:06;71730.97;;;20.48
64600;BMP280;6553;48.412;9.514;2023-02-28T05:42:36;71731.50;;;20.49
64600;BMP280;6553;48.412;9.514;2023-02-28T05:45:04;71727.66;;;20.48
64600;BMP280;6553;48.412;9.514;2023-02-28T05:47:30;71732.56;;;20.50
64600;BMP280;6553;48.412;9.514;2023-02-28T05:49:56;71730.97;;;20.48
64600;BMP280;6553;48.412;9.514;2023-02-28T05:52:22;71728.34;;;20.46
64600;BMP280;6553;48.412;9.514;2023-02-28T05:54:47;71729.50;;;20.44
64600;BMP280;6553;48.412;9.514;2023-02-28T05:57:13;71728.19;;;20.48
64600;BMP280;6553;48.412;9.514;2023-02-28T05:59:39;71730.97;;;20.48
64600;BMP280;6553;48.412;9.514;2023-02-28T06:02:11;71723.41;;;20.44
64600;BMP280;6553;48.412;9.514;2023-02-28T06:04:37;71729.50;;;20.44
64600;BMP280;6553;48.412;9.514;2023-02-28T06:07:03;71728.84;;;20.46
64600;BMP280;6553;48.412;9.514;2023-02-28T06:09:29;71726.63;;;20.47
64600;BMP280;6553;48.412;9.514;2023-02-28T06:11:58;71724.63;;;20.42
64600;BMP280;6553;48.412;9.514;2023-02-28T06:14:24;71723.41;;;20.44
64600;BMP280;6553;48.412;9.514;2023-02-28T06:16:50;71730.56;;;20.45
64600;BMP280;6553;48.412;9.514;2023-02-28T06:19:16;71729.38;;;20.47
64600;BMP280;6553;48.412;9.514;2023-02-28T06:21:43;71726.06;;;20.46
64600;BMP280;6553;48.412;9.514;2023-02-28T06:24:09;71728.19;;;20.48
64600;BMP280;6553;48.412;9.514;2023-02-28T06:26:36;71724.34;;;20.47
64600;BMP280;6553;48.412;9.514;2023-02-28T06:29:02;71729.91;;;20.47
64600;BMP280;6553;48.412;9.514;2023-02-28T06:31:28;71733.75;;;20.48
64600;BMP280;6553;48.412;9.514;2023-02-28T06:33:55;71738.66;;;20.50
64600;BMP280;6553;48.412;9.514;2023-02-28T06:36:22;71730.31;;;20.50
64600;BMP280;6553;48.412;9.514;2023-02-28T06:38:47;71725.97;;;20.49
64600;BMP280;6553;48.412;9.514;2023-02-28T06:41:22;71730.97;;;20.48
64600;BMP280;6553;48.412;9.514;2023-02-28T06:43:48;71728.34;;;20.46
64600;BMP280;6553;48.412;9.514;2023-02-28T06:46:14;71725.13;;;20.43
64600;BMP280;6553;48.412;9.514;2023-02-28T06:48:43;71730.44;;;20.48
64600;BMP280;6553;48.412;9.514;2023-02-28T06:51:14;71723.31;;;20.46
64600;BMP280;6553;48.412;9.514;2023-02-28T06:53:40;71728.84;;;20.46
64600;BMP280;6553;48.412;9.514;2023-02-28T06:56:14;71728.84;;;20.46
64600;BMP280;6553;48.412;9.514;2023-02-28T06:58:41;71722.88;;;20.43
64600;BMP280;6553;48.412;9.514;2023-02-28T07:01:08;71727.78;;;20.45
64600;BMP280;6553;48.412;9.514;2023-02-28T07:03:37;71729.38;;;20.47
64600;BMP280;6553;48.412;9.514;2023-02-28T07:06:05;71733.75;;;20.48
64600;BMP280;6553;48.412;9.514;2023-02-28T07:08:31;71733.63;;;20.51
64600;BMP280;6553;48.412;9.514;2023-02-28T07:10:57;71727.13;;;20.47
64600;BMP280;6553;48.412;9.514;2023-02-28T07:13:24;71730.97;;;20.48
64600;BMP280;6553;48.412;9.514;2023-02-28T07:16:00;71728.19;;;20.48
64600;BMP280;6553;48.412;9.514;2023-02-28T07:18:27;71732.56;;;20.50
64600;BMP280;6553;48.412;9.514;2023-02-28T07:20:53;71733.09;;;20.50
64600;BMP280;6553;48.412;9.514;2023-02-28T07:23:20;71729.91;;;20.47
64600;BMP280;6553;48.412;9.514;2023-02-28T07:25:47;71731.50;;;20.49
64600;BMP280;6553;48.412;9.514;2023-02-28T07:28:14;71733.22;;;20.48
64600;BMP280;6553;48.412;9.514;2023-02-28T07:30:40;71725.97;;;20.49
64600;BMP280;6553;48.412;9.514;2023-02-28T07:33:07;71727.78;;;20.45
64600;BMP280;6553;48.412;9.514;2023-02-28T07:35:32;71727.66;;;20.48
64600;BMP280;6553;48.412;9.514;2023-02-28T07:38:00;71733.22;;;20.48
64600;BMP280;6553;48.412;9.514;2023-02-28T07:40:26;71732.06;;;20.49
64600;BMP280;6553;48.412;9.514;2023-02-28T07:42:52;71730.44;;;20.48
64600;BMP280;6553;48.412;9.514;2023-02-28T07:45:18;71730.97;;;20.48
64600;BMP280;6553;48.412;9.514;2023-02-28T07:47:45;71728.09;;;20.51
64600;BMP280;6553;48.412;9.514;2023-02-28T07:50:14;71724.34;;;20.47
64600;BMP280;6553;48.412;9.514;2023-02-28T07:52:41;71733.09;;;20.50
64600;BMP280;6553;48.412;9.514;2023-02-28T07:55:08;71731.91;;;20.52
64600;BMP280;6553;48.412;9.514;2023-02-28T07:57:35;71733.09;;;20.50
64600;BMP280;6553;48.412;9.514;2023-02-28T08:00:03;71730.31;;;20.50
64600;BMP280;6553;48.412;9.514;2023-02-28T08:02:37;71732.06;;;20.49
64600;BMP280;6553;48.412;9.514;2023-02-28T08:05:03;71732.69;;;20.47
64600;BMP280;6553;48.412;9.514;2023-02-28T08:07:29;71729.38;;;20.47
64600;BMP280;6553;48.412;9.514;2023-02-28T08:09:55;71734.16;;;20.51
64600;BMP280;6553;48.412;9.514;2023-02-28T08:12:20;71726.50;;;20.49
64600;BMP280;6553;48.412;9.514;2023-02-28T08:14:46;71731.38;;;20.51
64600;BMP280;6553;48.412;9.514;2023-02-28T08:17:12;71736.94;;;20.51
64600;BMP280;6553;48.412;9.514;2023-02-28T08:19:38;71735.75;;;20.53
64600;BMP280;6553;48.412;9.514;2023-02-28T08:22:05;71733.50;;;20.53
64600;BMP280;6553;48.412;9.514;2023-02-28T08:24:30;71735.22;;;20.52
64600;BMP280;6553;48.412;9.514;2023-02-28T08:26:56;71735.75;;;20.53
64600;BMP280;6553;48.412;9.514;2023-02-28T08:29:22;71735.75;;;20.53
64600;BMP280;6553;48.412;9.514;2023-02-28T08:31:48;71736.28;;;20.53
64600;BMP280;6553;48.412;9.514;2023-02-28T08:34:15;71731.91;;;20.52
64600;BMP280;6553;48.412;9.514;2023-02-28T08:36:42;71733.50;;;20.53
64600;BMP280;6553;48.412;9.514;2023-02-28T08:39:10;71733.00;;;20.53
64600;BMP280;6553;48.412;9.514;2023-02-28T08:41:36;71735.13;;;20.55
64600;BMP280;6553;48.412;9.514;2023-02-28T08:44:02;71739.59;;;20.54
64600;BMP280;6553;48.412;9.514;2023-02-28T08:46:28;71737.34;;;20.54
64600;BMP280;6553;48.412;9.514;2023-02-28T08:48:56;71738.41;;;20.55
64600;BMP280;6553;48.412;9.514;2023-02-28T08:51:26;71735.13;;;20.55
64600;BMP280;6553;48.412;9.514;2023-02-28T08:53:53;71739.47;;;20.57
64600;BMP280;6553;48.412;9.514;2023-02-28T08:56:20;71741.19;;;20.55
64600;BMP280;6553;48.412;9.514;2023-02-28T08:58:49;71738.28;;;20.58
64600;BMP280;6553;48.412;9.514;2023-02-28T09:01:19;71737.22;;;20.57
64600;BMP280;6553;48.412;9.514;2023-02-28T09:03:47;71738.28;;;20.58
64600;BMP280;6553;48.412;9.514;2023-02-28T09:06:15;71745.97;;;20.60
64600;BMP280;6553;48.412;9.514;2023-02-28T09:08:42;71744.25;;;20.61
64600;BMP280;6553;48.412;9.514;2023-02-28T09:11:09;71738.84;;;20.59
64600;BMP280;6553;48.412;9.514;2023-02-28T09:13:36;71742.13;;;20.59
64600;BMP280;6553;48.412;9.514;2023-02-28T09:16:05;71742.66;;;20.60
64600;BMP280;6553;48.412;9.514;2023-02-28T09:18:31;71738.84;;;20.59
64600;BMP280;6553;48.412;9.514;2023-02-28T09:20:58;71743.19;;;20.60
64600;BMP280;6553;48.412;9.514;2023-02-28T09:23:24;71742.66;;;20.60
64600;BMP280;6553;48.412;9.514;2023-02-28T09:25:54;71740.94;;;20.61
64600;BMP280;6553;48.412;9.514;2023-02-28T09:28:21;71744.25;;;20.61
64600;BMP280;6553;48.412;9.514;2023-02-28T09:30:51;71743.72;;;20.61
64600;BMP280;6553;48.412;9.514;2023-02-28T09:33:19;71745.97;;;20.60
64600;BMP280;6553;48.412;9.514;2023-02-28T09:35:49;71739.38;;;20.59
64600;BMP280;6553;48.412;9.514;2023-02-28T09:38:17;71742.66;;;20.60
64600;BMP280;6553;48.412;9.514;2023-02-28T09:41:00;71737.13;;;20.60
64600;BMP280;6553;48.412;9.514;2023-02-28T09:43:34;71742.00;;;20.62
64600;BMP280;6553;48.412;9.514;2023-02-28T09:48:52;71744.16;;;20.64
64600;BMP280;6553;48.412;9.514;2023-02-28T09:51:34;71744.78;;;20.62
64600;BMP280;6553;48.412;9.514;2023-02-28T09:54:02;71748.63;;;20.63
64600;BMP280;6553;48.412;9.514;2023-02-28T09:56:41;71751.81;;;20.66
64600;BMP280;6553;48.412;9.514;2023-02-28T10:04:57;71746.94;;;20.64
64600;BMP280;6553;48.412;9.514;2023-02-28T10:07:53;71747.44;;;20.64
64600;BMP280;6553;48.412;9.514;2023-02-28T10:10:45;71745.72;;;20.65
64600;BMP280;6553;48.412;9.514;2023-02-28T10:13:54;71745.19;;;20.65
64600;BMP280;6553;48.412;9.514;2023-02-28T10:16:36;71745.84;;;20.63
64600;BMP280;6553;48.412;9.514;2023-02-28T10:22:33;71728.84;;;20.46
64600;BMP280;6553;48.412;9.514;2023-02-28T10:25:20;71736.06;;;20.59
64600;BMP280;6553;48.412;9.514;2023-02-28T10:27:46;71741.47;;;20.61
64600;BMP280;6553;48.412;9.514;2023-02-28T10:30:13;71755.13;;;20.66
64600;BMP280;6553;48.412;9.514;2023-02-28T10:32:50;71737.66;;;20.60
64600;BMP280;6553;48.412;9.514;2023-02-28T10:35:24;71746.41;;;20.63
64600;BMP280;6553;48.412;9.514;2023-02-28T10:38:14;71750.88;;;20.62
64600;BMP280;6553;48.412;9.514;2023-02-28T10:40:41;71744.78;;;20.62
64600;BMP280;6553;48.412;9.514;2023-02-28T10:45:39;71749.16;;;20.63
64600;BMP280;6553;48.412;9.514;2023-02-28T10:50:50;71751.28;;;20.65
64600;BMP280;6553;48.412;9.514;2023-02-28T10:56:22;71748.91;;;20.68
64600;BMP280;6553;48.412;9.514;2023-02-28T10:58:55;71752.22;;;20.69
64600;BMP280;6553;48.412;9.514;2023-02-28T11:04:03;71753.69;;;20.73
64600;BMP280;6553;48.412;9.514;2023-02-28T11:06:32;71758.59;;;20.75
64600;BMP280;6553;48.412;9.514;2023-02-28T11:09:13;71762.56;;;20.73
64600;BMP280;6553;48.412;9.514;2023-02-28T11:11:45;71759.78;;;20.73
64600;BMP280;6553;48.412;9.514;2023-02-28T11:14:24;71758.59;;;20.75
64600;BMP280;6553;48.412;9.514;2023-02-28T11:16:51;71757.00;;;20.73
64600;BMP280;6553;48.412;9.514;2023-02-28T11:19:44;71755.81;;;20.75
64600;BMP280;6553;48.412;9.514;2023-02-28T11:22:18;71758.06;;;20.74
64600;BMP280;6553;48.412;9.514;2023-02-28T11:24:49;71758.47;;;20.77
64600;BMP280;6553;48.412;9.514;2023-02-28T11:29:58;71763.78;;;20.82
64600;BMP280;6553;48.412;9.514;2023-02-28T11:32:27;71763.91;;;20.80
64600;BMP280;6553;48.412;9.514;2023-02-28T11:35:18;71764.44;;;20.80
64600;BMP280;6553;48.412;9.514;2023-02-28T11:37:48;71761.25;;;20.77
64600;BMP280;6553;48.412;9.514;2023-02-28T11:40:21;71759.00;;;20.78
64600;BMP280;6553;48.412;9.514;2023-02-28T11:43:16;71764.44;;;20.80
64600;BMP280;6553;48.412;9.514;2023-02-28T11:45:55;71761.16;;;20.80
64600;BMP280;6553;48.412;9.514;2023-02-28T11:48:50;71760.06;;;20.79
64600;BMP280;6553;48.412;9.514;2023-02-28T11:52:14;71760.06;;;20.79
64600;BMP280;6553;48.412;9.514;2023-02-28T11:54:56;71757.94;;;20.77
64600;BMP280;6553;48.412;9.514;2023-02-28T12:01:12;71763.50;;;20.77
64600;BMP280;6553;48.412;9.514;2023-02-28T12:09:38;71761.25;;;20.77
64600;BMP280;6553;48.412;9.514;2023-02-28T12:12:27;71763.50;;;20.77
64600;BMP280;6553;48.412;9.514;2023-02-28T12:18:51;71756.88;;;20.76
64600;BMP280;6553;48.412;9.514;2023-02-28T12:21:31;71757.53;;;20.74
64600;BMP280;6553;48.412;9.514;2023-02-28T12:26:44;71752.00;;;20.74
64600;BMP280;6553;48.412;9.514;2023-02-28T12:29:28;71759.66;;;20.76
64600;BMP280;6553;48.412;9.514;2023-02-28T12:32:13;71755.81;;;20.75
64600;BMP280;6553;48.412;9.514;2023-02-28T12:34:55;71753.69;;;20.73
64600;BMP280;6553;48.412;9.514;2023-02-28T12:37:31;71765.91;;;20.84
64600;BMP280;6553;48.412;9.514;2023-02-28T12:40:13;71762.44;;;20.76
64600;BMP280;6553;48.412;9.514;2023-02-28T12:42:46;71756.88;;;20.76
64600;BMP280;6553;48.412;9.514;2023-02-28T12:45:18;71760.06;;;20.79
64600;BMP280;6553;48.412;9.514;2023-02-28T12:47:50;71763.38;;;20.79
64600;BMP280;6553;48.412;9.514;2023-02-28T12:50:19;71760.19;;;20.76
64600;BMP280;6553;48.412;9.514;2023-02-28T12:53:02;71757.41;;;20.76
64600;BMP280;6553;48.412;9.514;2023-02-28T12:55:48;71758.06;;;20.74
64600;BMP280;6553;48.412;9.514;2023-02-28T12:58:54;71757.53;;;20.74
64600;BMP280;6553;48.412;9.514;2023-02-28T13:04:43;71757.53;;;20.74
64600;BMP280;6553;48.412;9.514;2023-02-28T13:10:00;71755.94;;;20.72
64600;BMP280;6553;48.412;9.514;2023-02-28T13:12:28;71753.69;;;20.73
64600;BMP280;6553;48.412;9.514;2023-02-28T13:15:24;71757.66;;;20.71
64600;BMP280;6553;48.412;9.514;2023-02-28T13:17:56;71755.41;;;20.72
64600;BMP280;6553;48.412;9.514;2023-02-28T13:20:27;71749.34;;;20.71
64600;BMP280;6553;48.412;9.514;2023-02-28T13:22:55;71755.41;;;20.72
64600;BMP280;6553;48.412;9.514;2023-02-28T13:27:53;71760.31;;;20.74
64600;BMP280;6553;48.412;9.514;2023-02-28T13:33:26;71758.19;;;20.72
64600;BMP280;6553;48.412;9.514;2023-02-28T13:47:41;71750.38;;;20.72
64600;BMP280;6553;48.412;9.514;2023-02-28T13:56:26;71759.13;;;20.75
64600;BMP280;6553;48.412;9.514;2023-02-28T13:59:02;71757.53;;;20.74
64600;BMP280;6553;48.412;9.514;2023-02-28T14:05:01;71760.19;;;20.76
64600;BMP280;6553;48.412;9.514;2023-02-28T14:07:53;71760.19;;;20.76
64600;BMP280;6553;48.412;9.514;2023-02-28T14:10:41;71758.59;;;20.75
64600;BMP280;6553;48.412;9.514;2023-02-28T14:16:13;71750.50;;;20.70
64600;BMP280;6553;48.412;9.514;2023-02-28T14:18:57;71759.66;;;20.76
64600;BMP280;6553;48.412;9.514;2023-02-28T14:21:32;71757.41;;;20.76
64600;BMP280;6553;48.412;9.514;2023-02-28T14:24:42;71757.00;;;20.73
64600;BMP280;6553;48.412;9.514;2023-02-28T14:27:40;71754.22;;;20.73
64600;BMP280;6553;48.412;9.514;2023-02-28T14:36:07;71757.94;;;20.77
64600;BMP280;6553;48.412;9.514;2023-02-28T14:38:48;71760.84;;;20.74
64600;BMP280;6553;48.412;9.514;2023-02-28T14:41:34;71755.81;;;20.75
64600;BMP280;6553;48.412;9.514;2023-02-28T14:44:20;71757.53;;;20.74
64600;BMP280;6553;48.412;9.514;2023-02-28T14:46:59;71763.50;;;20.77
64600;BMP280;6553;48.412;9.514;2023-02-28T14:49:35;71759.13;;;20.75
64600;BMP280;6553;48.412;9.514;2023-02-28T14:52:22;71762.44;;;20.76
64600;BMP280;6553;48.412;9.514;2023-02-28T14:54:59;71755.81;;;20.75
64600;BMP280;6553;48.412;9.514;2023-02-28T14:57:35;71754.63;;;20.76
64600;BMP280;6553;48.412;9.514;2023-02-28T15:00:23;71755.28;;;20.74
64600;BMP280;6553;48.412;9.514;2023-02-28T15:02:49;71761.38;;;20.75
64600;BMP280;6553;48.412;9.514;2023-02-28T15:07:45;71762.97;;;20.76
64600;BMP280;6553;48.412;9.514;2023-02-28T15:10:29;71759.00;;;20.78
64600;BMP280;6553;48.412;9.514;2023-02-28T15:13:05;71762.31;;;20.78
64600;BMP280;6553;48.412;9.514;2023-02-28T15:15:55;71759.66;;;20.76
64600;BMP280;6553;48.412;9.514;2023-02-28T15:18:33;71760.19;;;20.76
64600;BMP280;6553;48.412;9.514;2023-02-28T15:21:10;71760.19;;;20.76
64600;BMP280;6553;48.412;9.514;2023-02-28T15:23:38;71756.34;;;20.75
64600;BMP280;6553;48.412;9.514;2023-02-28T15:26:06;71760.72;;;20.77
64600;BMP280;6553;48.412;9.514;2023-02-28T15:28:32;71760.72;;;20.77
64600;BMP280;6553;48.412;9.514;2023-02-28T15:31:02;71758.47;;;20.77
64600;BMP280;6553;48.412;9.514;2023-02-28T15:33:33;71755.72;;;20.77
64600;BMP280;6553;48.412;9.514;2023-02-28T15:36:29;71764.03;;;20.77
64600;BMP280;6553;48.412;9.514;2023-02-28T15:38:55;71755.16;;;20.77
64600;BMP280;6553;48.412;9.514;2023-02-28T15:41:35;71759.13;;;20.75
64600;BMP280;6553;48.412;9.514;2023-02-28T15:47:01;71601.94;;;19.26
64600;BMP280;6553;48.412;9.514;2023-02-28T15:49:29;71672.03;;;19.93
64600;BMP280;6553;48.412;9.514;2023-02-28T15:51:59;71711.09;;;20.35
64600;BMP280;6553;48.412;9.514;2023-02-28T15:54:33;71736.28;;;20.53
64600;BMP280;6553;48.412;9.514;2023-02-28T15:57:06;71742.00;;;20.62
64600;BMP280;6553;48.412;9.514;2023-02-28T15:59:36;71743.63;;;20.63
64600;BMP280;6553;48.412;9.514;2023-02-28T16:02:34;71747.44;;;20.64
64600;BMP280;6553;48.412;9.514;2023-02-28T16:07:33;71748.50;;;20.65
64600;BMP280;6553;48.412;9.514;2023-02-28T16:10:00;71749.16;;;20.63
64600;BMP280;6553;48.412;9.514;2023-02-28T16:12:31;71748.63;;;20.63
64600;BMP280;6553;48.412;9.514;2023-02-28T16:15:07;71747.34;;;20.67
64600;BMP280;6553;48.412;9.514;2023-02-28T16:17:38;71747.97;;;20.65
64600;BMP280;6553;48.412;9.514;2023-02-28T16:20:29;71745.09;;;20.67
64600;BMP280;6553;48.412;9.514;2023-02-28T16:22:56;71749.56;;;20.66
64600;BMP280;6553;48.412;9.514;2023-02-28T16:25:38;71749.16;;;20.63
64600;BMP280;6553;48.412;9.514;2023-02-28T16:28:24;71749.69;;;20.64
64600;BMP280;6553;48.412;9.514;2023-02-28T16:30:52;71742.53;;;20.62
64600;BMP280;6553;48.412;9.514;2023-02-28T16:33:18;71745.31;;;20.62
64600;BMP280;6553;48.412;9.514;2023-02-28T16:35:44;71745.84;;;20.63
64600;BMP280;6553;48.412;9.514;2023-02-28T16:38:10;71745.31;;;20.62
64600;BMP280;6553;48.412;9.514;2023-02-28T16:40:36;71745.31;;;20.62
64600;BMP280;6553;48.412;9.514;2023-02-28T16:43:12;71744.78;;;20.62
64600;BMP280;6553;48.412;9.514;2023-02-28T16:45:39;71744.78;;;20.62
64600;BMP280;6553;48.412;9.514;2023-02-28T16:48:05;71744.78;;;20.62
64600;BMP280;6553;48.412;9.514;2023-02-28T16:50:31;71747.56;;;20.62